sensor_id;sensor_type;location;lat;lon;timestamp;P1;durP1;ratioP1;P2;durP2;ratioP2
75839;SDS011;64481;55.090;37.460;2022-10-26T00:02:00;3.88;;;2.40;;
75839;SDS011;64481;55.090;37.460;2022-10-26T00:07:01;4.72;;;2.25;;
75839;SDS011;64481;55.090;37.460;2022-10-26T00:12:02;3.97;;;2.38;;
75839;SDS011;64481;55.090;37.460;2022-10-26T00:17:03;6.75;;;2.70;;
75839;SDS011;64481;55.090;37.460;2022-10-26T00:22:04;4.88;;;2.38;;
75839;SDS011;64481;55.090;37.460;2022-10-26T00:27:06;6.07;;;2.40;;
75839;SDS011;64481;55.090;37.460;2022-10-26T00:32:07;5.55;;;2.15;;
75839;SDS011;64481;55.090;37.460;2022-10-26T00:37:08;4.10;;;2.20;;
75839;SDS011;64481;55.090;37.460;2022-10-26T00:42:11;3.30;;;2.03;;
75839;SDS011;64481;55.090;37.460;2022-10-26T00:52:14;4.82;;;2.40;;
75839;SDS011;64481;55.090;37.460;2022-10-26T00:57:17;3.88;;;1.95;;
75839;SDS011;64481;55.090;37.460;2022-10-26T01:02:18;3.78;;;2.08;;
75839;SDS011;64481;55.090;37.460;2022-10-26T01:07:19;3.95;;;2.08;;
75839;SDS011;64481;55.090;37.460;2022-10-26T01:12:20;4.10;;;2.10;;
75839;SDS011;64481;55.090;37.460;2022-10-26T01:22:33;4.97;;;2.17;;
75839;SDS011;64481;55.090;37.460;2022-10-26T01:27:43;5.53;;;2.30;;
75839;SDS011;64481;55.090;37.460;2022-10-26T01:38:03;3.58;;;1.80;;
75839;SDS011;64481;55.090;37.460;2022-10-26T01:43:21;4.28;;;1.88;;
75839;SDS011;64481;55.090;37.460;2022-10-26T01:48:23;4.32;;;2.22;;
75839;SDS011;64481;55.090;37.460;2022-10-26T01:53:26;2.88;;;1.77;;
75839;SDS011;64481;55.090;37.460;2022-10-26T09:29:30;4.45;;;1.88;;
75839;SDS011;64481;55.090;37.460;2022-10-26T09:34:37;5.18;;;1.88;;
75839;SDS011;64481;55.090;37.460;2022-10-26T09:39:51;3.67;;;1.52;;
75839;SDS011;64481;55.090;37.460;2022-10-26T09:44:59;4.10;;;1.60;;
75839;SDS011;64481;55.090;37.460;2022-10-26T09:55:16;3.30;;;1.38;;
75839;SDS011;64481;55.090;37.460;2022-10-26T10:00:19;3.83;;;1.27;;
75839;SDS011;64481;55.090;37.460;2022-10-26T10:10:27;3.90;;;1.17;;
75839;SDS011;64481;55.090;37.460;2022-10-26T10:15:28;3.03;;;1.40;;
75839;SDS011;64481;55.090;37.460;2022-10-26T10:20:32;4.35;;;1.33;;
75839;SDS011;64481;55.090;37.460;2022-10-26T10:25:34;4.38;;;1.30;;
75839;SDS011;64481;55.090;37.460;2022-10-26T10:30:36;4.13;;;1.30;;
75839;SDS011;64481;55.090;37.460;2022-10-26T10:35:38;2.95;;;1.42;;
75839;SDS011;64481;55.090;37.460;2022-10-26T10:40:52;2.22;;;1.25;;
75839;SDS011;64481;55.090;37.460;2022-10-26T10:45:55;2.88;;;1.13;;
75839;SDS011;64481;55.090;37.460;2022-10-26T10:51:04;3.78;;;1.48;;
75839;SDS011;64481;55.090;37.460;2022-10-26T11:01:37;3.65;;;1.33;;
75839;SDS011;64481;55.090;37.460;2022-10-26T11:06:40;3.88;;;1.48;;
75839;SDS011;64481;55.090;37.460;2022-10-26T11:11:43;3.05;;;1.42;;
75839;SDS011;64481;55.090;37.460;2022-10-26T11:16:51;3.25;;;1.33;;
75839;SDS011;64481;55.090;37.460;2022-10-26T11:21:56;4.25;;;1.58;;
75839;SDS011;64481;55.090;37.460;2022-10-26T11:32:24;3.00;;;1.48;;
75839;SDS011;64481;55.090;37.460;2022-10-26T11:42:51;3.10;;;1.20;;
75839;SDS011;64481;55.090;37.460;2022-10-26T11:53:34;4.82;;;1.20;;
75839;SDS011;64481;55.090;37.460;2022-10-26T11:58:37;2.80;;;1.10;;
75839;SDS011;64481;55.090;37.460;2022-10-26T12:03:40;3.60;;;1.38;;
75839;SDS011;64481;55.090;37.460;2022-10-26T12:08:51;2.95;;;1.00;;
75839;SDS011;64481;55.090;37.460;2022-10-26T12:19:22;4.78;;;1.42;;
75839;SDS011;64481;55.090;37.460;2022-10-26T12:24:27;2.78;;;1.23;;
75839;SDS011;64481;55.090;37.460;2022-10-26T12:29:45;3.60;;;1.08;;
75839;SDS011;64481;55.090;37.460;2022-10-26T12:39:49;3.05;;;1.02;;
75839;SDS011;64481;55.090;37.460;2022-10-26T12:49:58;3.47;;;1.08;;
75839;SDS011;64481;55.090;37.460;2022-10-26T13:00:15;3.53;;;1.40;;
75839;SDS011;64481;55.090;37.460;2022-10-26T13:10:24;2.95;;;1.35;;
75839;SDS011;64481;55.090;37.460;2022-10-26T13:15:30;3.20;;;1.20;;
75839;SDS011;64481;55.090;37.460;2022-10-26T19:10:43;5.20;;;1.20;;
75839;SDS011;64481;55.090;37.460;2022-10-26T19:15:44;3.92;;;1.10;;
75839;SDS011;64481;55.090;37.460;2022-10-26T19:20:46;3.40;;;1.20;;
75839;SDS011;64481;55.090;37.460;2022-10-26T19:25:55;4.60;;;1.58;;
75839;SDS011;64481;55.090;37.460;2022-10-26T19:30:56;7.40;;;2.08;;
75839;SDS011;64481;55.090;37.460;2022-10-26T19:36:01;7.88;;;1.42;;
75839;SDS011;64481;55.090;37.460;2022-10-26T19:41:11;4.10;;;1.33;;
75839;SDS011;64481;55.090;37.460;2022-10-26T19:46:13;2.90;;;1.08;;
75839;SDS011;64481;55.090;37.460;2022-10-26T19:51:16;2.80;;;1.30;;
75839;SDS011;64481;55.090;37.460;2022-10-26T19:56:17;2.67;;;1.20;;
75839;SDS011;64481;55.090;37.460;2022-10-26T20:01:20;3.10;;;1.35;;
75839;SDS011;64481;55.090;37.460;2022-10-26T20:06:21;3.75;;;1.20;;
75839;SDS011;64481;55.090;37.460;2022-10-26T20:11:22;3.45;;;1.40;;
75839;SDS011;64481;55.090;37.460;2022-10-26T20:16:23;5.95;;;1.60;;
75839;SDS011;64481;55.090;37.460;2022-10-26T20:21:24;4.80;;;1.67;;
75839;SDS011;64481;55.090;37.460;2022-10-26T20:26:25;4.43;;;1.75;;
75839;SDS011;64481;55.090;37.460;2022-10-26T20:31:26;6.32;;;1.40;;
75839;SDS011;64481;55.090;37.460;2022-10-26T20:36:27;5.50;;;1.50;;
75839;SDS011;64481;55.090;37.460;2022-10-26T20:41:28;5.38;;;1.90;;
75839;SDS011;64481;55.090;37.460;2022-10-26T20:46:30;4.40;;;1.48;;
75839;SDS011;64481;55.090;37.460;2022-10-26T20:57:11;3.38;;;1.30;;
75839;SDS011;64481;55.090;37.460;2022-10-26T21:02:15;4.32;;;1.42;;
75839;SDS011;64481;55.090;37.460;2022-10-26T21:07:16;4.45;;;1.42;;
75839;SDS011;64481;55.090;37.460;2022-10-26T21:12:17;2.90;;;1.30;;
75839;SDS011;64481;55.090;37.460;2022-10-26T21:17:18;3.33;;;1.50;;
75839;SDS011;64481;55.090;37.460;2022-10-26T21:22:19;3.08;;;1.50;;
75839;SDS011;64481;55.090;37.460;2022-10-26T21:27:20;2.90;;;1.60;;
75839;SDS011;64481;55.090;37.460;2022-10-26T21:32:21;3.65;;;1.55;;
75839;SDS011;64481;55.090;37.460;2022-10-26T21:37:25;3.20;;;1.55;;
75839;SDS011;64481;55.090;37.460;2022-10-26T21:42:26;2.80;;;1.50;;
75839;SDS011;64481;55.090;37.460;2022-10-26T21:47:27;3.22;;;1.42;;
75839;SDS011;64481;55.090;37.460;2022-10-26T21:52:28;3.83;;;1.75;;
75839;SDS011;64481;55.090;37.460;2022-10-26T21:57:29;7.28;;;1.60;;
75839;SDS011;64481;55.090;37.460;2022-10-26T22:02:30;2.80;;;1.45;;
75839;SDS011;64481;55.090;37.460;2022-10-26T22:07:31;2.85;;;1.60;;
75839;SDS011;64481;55.090;37.460;2022-10-26T22:12:33;3.33;;;1.40;;
75839;SDS011;64481;55.090;37.460;2022-10-26T22:17:37;4.28;;;1.80;;
75839;SDS011;64481;55.090;37.460;2022-10-26T22:22:38;2.65;;;1.20;;
75839;SDS011;64481;55.090;37.460;2022-10-26T22:27:40;3.92;;;1.60;;
75839;SDS011;64481;55.090;37.460;2022-10-26T22:32:41;6.20;;;1.80;;
75839;SDS011;64481;55.090;37.460;2022-10-26T22:37:42;3.90;;;1.70;;
75839;SDS011;64481;55.090;37.460;2022-10-26T22:42:44;3.63;;;1.80;;
75839;SDS011;64481;55.090;37.460;2022-10-26T22:47:45;3.15;;;1.50;;
75839;SDS011;64481;55.090;37.460;2022-10-26T22:52:45;4.15;;;1.70;;
75839;SDS011;64481;55.090;37.460;2022-10-26T22:57:46;3.83;;;1.85;;
75839;SDS011;64481;55.090;37.460;2022-10-26T23:02:47;5.05;;;1.90;;
75839;SDS011;64481;55.090;37.460;2022-10-26T23:07:48;3.95;;;1.50;;
75839;SDS011;64481;55.090;37.460;2022-10-26T23:12:50;3.25;;;1.30;;
75839;SDS011;64481;55.090;37.460;2022-10-26T23:17:52;3.17;;;1.50;;
75839;SDS011;64481;55.090;37.460;2022-10-26T23:22:53;3.35;;;1.70;;
75839;SDS011;64481;55.090;37.460;2022-10-26T23:27:54;4.72;;;1.80;;
75839;SDS011;64481;55.090;37.460;2022-10-26T23:32:55;3.95;;;1.50;;
75839;SDS011;64481;55.090;37.460;2022-10-26T23:37:56;3.75;;;1.90;;
75839;SDS011;64481;55.090;37.460;2022-10-26T23:42:58;3.20;;;1.52;;
75839;SDS011;64481;55.090;37.460;2022-10-26T23:47:59;3.35;;;1.67;;
75839;SDS011;64481;55.090;37.460;2022-10-26T23:53:00;3.50;;;1.33;;
75839;SDS011;64481;55.090;37.460;2022-10-26T23:58:01;2.85;;;1.58;;
